Terminal Aerodrome Forecast
Issued by NWS

Home | Current Version | Previous Version | Text Only | Print | Product List | Glossary On
Versions: 1 2 3 4 5 6 7 8 9 10 11 12 13 14 15
353
FTUS46 KSTO 091436 AAA
TAFSAC
TAF AMD
KSAC 091436Z 0915/1012 VRB03KT 6SM BR SKC
      TEMPO 0915/0917 3SM BR BCFG SCT002
     FM091800 34005KT P6SM SCT250=

USA.gov is the U.S. government's official web portal to all federal, state and local government web resources and services.